sensor_id;sensor_type;location;lat;lon;timestamp;temperature;humidity
37702;DHT22;23548;51.196;6.838;2024-03-23T00:55:54;7.20;99.90
37702;DHT22;23548;51.196;6.838;2024-03-23T00:58:22;7.10;99.90
37702;DHT22;23548;51.196;6.838;2024-03-23T01:00:49;7.20;99.90
37702;DHT22;23548;51.196;6.838;2024-03-23T01:03:16;7.20;99.90
37702;DHT22;23548;51.196;6.838;2024-03-23T01:05:43;7.20;99.90
37702;DHT22;23548;51.196;6.838;2024-03-23T01:08:13;7.20;99.90
37702;DHT22;23548;51.196;6.838;2024-03-23T01:10:40;7.30;99.90
37702;DHT22;23548;51.196;6.838;2024-03-23T01:13:06;7.20;99.90
37702;DHT22;23548;51.196;6.838;2024-03-23T01:15:33;7.20;99.90
37702;DHT22;23548;51.196;6.838;2024-03-23T01:18:03;7.20;99.90
37702;DHT22;23548;51.196;6.838;2024-03-23T01:20:30;7.30;99.90
37702;DHT22;23548;51.196;6.838;2024-03-23T01:22:57;7.30;99.90
37702;DHT22;23548;51.196;6.838;2024-03-23T01:25:23;7.40;99.90
37702;DHT22;23548;51.196;6.838;2024-03-23T01:27:50;7.30;99.90
37702;DHT22;23548;51.196;6.838;2024-03-23T01:30:16;7.30;99.90
37702;DHT22;23548;51.196;6.838;2024-03-23T01:32:43;7.30;99.90
37702;DHT22;23548;51.196;6.838;2024-03-23T01:35:10;7.20;99.90
37702;DHT22;23548;51.196;6.838;2024-03-23T01:37:36;7.20;99.90
37702;DHT22;23548;51.196;6.838;2024-03-23T01:40:03;7.10;99.90
37702;DHT22;23548;51.196;6.838;2024-03-23T01:42:30;6.90;99.90
37702;DHT22;23548;51.196;6.838;2024-03-23T01:44:57;6.80;99.90
37702;DHT22;23548;51.196;6.838;2024-03-23T01:47:23;6.80;99.90
37702;DHT22;23548;51.196;6.838;2024-03-23T01:49:49;6.80;99.90
37702;DHT22;23548;51.196;6.838;2024-03-23T01:52:15;6.80;99.90
37702;DHT22;23548;51.196;6.838;2024-03-23T01:54:41;6.60;99.90
37702;DHT22;23548;51.196;6.838;2024-03-23T01:57:07;6.60;99.90
37702;DHT22;23548;51.196;6.838;2024-03-23T01:59:33;6.50;99.90
37702;DHT22;23548;51.196;6.838;2024-03-23T02:01:58;6.50;99.90
37702;DHT22;23548;51.196;6.838;2024-03-23T02:04:24;6.40;99.90
37702;DHT22;23548;51.196;6.838;2024-03-23T02:06:50;6.40;99.90
37702;DHT22;23548;51.196;6.838;2024-03-23T02:09:16;6.30;99.90
37702;DHT22;23548;51.196;6.838;2024-03-23T02:11:41;6.40;99.90
37702;DHT22;23548;51.196;6.838;2024-03-23T02:14:07;6.30;99.90
37702;DHT22;23548;51.196;6.838;2024-03-23T02:16:33;6.30;99.90
37702;DHT22;23548;51.196;6.838;2024-03-23T02:18:59;6.40;99.90
37702;DHT22;23548;51.196;6.838;2024-03-23T02:21:24;6.30;99.90
37702;DHT22;23548;51.196;6.838;2024-03-23T02:23:50;6.30;99.90
37702;DHT22;23548;51.196;6.838;2024-03-23T02:26:16;6.40;99.90
37702;DHT22;23548;51.196;6.838;2024-03-23T02:28:42;6.50;99.90
37702;DHT22;23548;51.196;6.838;2024-03-23T02:31:08;6.30;99.90
37702;DHT22;23548;51.196;6.838;2024-03-23T02:33:34;6.40;99.90
37702;DHT22;23548;51.196;6.838;2024-03-23T02:36:04;6.50;99.90
37702;DHT22;23548;51.196;6.838;2024-03-23T02:38:30;6.50;99.90
37702;DHT22;23548;51.196;6.838;2024-03-23T02:41:04;6.50;99.90
37702;DHT22;23548;51.196;6.838;2024-03-23T02:43:30;6.40;99.90
37702;DHT22;23548;51.196;6.838;2024-03-23T02:45:56;6.50;99.90
37702;DHT22;23548;51.196;6.838;2024-03-23T02:48:21;6.50;99.90
37702;DHT22;23548;51.196;6.838;2024-03-23T02:50:47;6.40;99.90
37702;DHT22;23548;51.196;6.838;2024-03-23T02:53:13;6.50;99.90
37702;DHT22;23548;51.196;6.838;2024-03-23T02:55:38;6.60;99.90
37702;DHT22;23548;51.196;6.838;2024-03-23T02:58:04;6.60;99.90
37702;DHT22;23548;51.196;6.838;2024-03-23T03:00:30;6.70;99.90
37702;DHT22;23548;51.196;6.838;2024-03-23T03:02:56;6.60;99.90
37702;DHT22;23548;51.196;6.838;2024-03-23T03:05:22;6.60;99.90
37702;DHT22;23548;51.196;6.838;2024-03-23T03:07:47;6.60;99.90
37702;DHT22;23548;51.196;6.838;2024-03-23T03:10:13;6.50;99.90
37702;DHT22;23548;51.196;6.838;2024-03-23T03:12:39;6.50;99.90
37702;DHT22;23548;51.196;6.838;2024-03-23T03:15:05;6.60;99.90
37702;DHT22;23548;51.196;6.838;2024-03-23T03:17:31;6.50;99.90
37702;DHT22;23548;51.196;6.838;2024-03-23T03:19:57;6.60;99.90
37702;DHT22;23548;51.196;6.838;2024-03-23T03:22:23;6.50;99.90
37702;DHT22;23548;51.196;6.838;2024-03-23T03:24:49;6.40;99.90
37702;DHT22;23548;51.196;6.838;2024-03-23T03:27:15;6.50;99.90
37702;DHT22;23548;51.196;6.838;2024-03-23T03:29:40;6.50;99.90
37702;DHT22;23548;51.196;6.838;2024-03-23T03:32:06;6.50;99.90
37702;DHT22;23548;51.196;6.838;2024-03-23T03:34:32;6.50;99.90
37702;DHT22;23548;51.196;6.838;2024-03-23T03:36:58;6.50;99.90
37702;DHT22;23548;51.196;6.838;2024-03-23T03:39:25;6.50;99.90
37702;DHT22;23548;51.196;6.838;2024-03-23T03:41:51;6.50;99.90
37702;DHT22;23548;51.196;6.838;2024-03-23T03:44:17;6.60;99.90
37702;DHT22;23548;51.196;6.838;2024-03-23T03:46:42;6.50;99.90
37702;DHT22;23548;51.196;6.838;2024-03-23T03:49:08;6.50;99.90
37702;DHT22;23548;51.196;6.838;2024-03-23T03:51:34;6.40;99.90
37702;DHT22;23548;51.196;6.838;2024-03-23T03:54:00;6.50;99.90
37702;DHT22;23548;51.196;6.838;2024-03-23T03:56:26;6.50;99.90
37702;DHT22;23548;51.196;6.838;2024-03-23T03:58:52;6.60;99.90
37702;DHT22;23548;51.196;6.838;2024-03-23T04:01:18;6.50;99.90
37702;DHT22;23548;51.196;6.838;2024-03-23T04:03:44;6.40;99.90
37702;DHT22;23548;51.196;6.838;2024-03-23T04:06:10;6.50;99.90
37702;DHT22;23548;51.196;6.838;2024-03-23T04:08:35;6.60;99.90
37702;DHT22;23548;51.196;6.838;2024-03-23T04:11:02;6.50;99.90
37702;DHT22;23548;51.196;6.838;2024-03-23T04:13:27;6.50;99.90
37702;DHT22;23548;51.196;6.838;2024-03-23T04:15:56;6.50;99.90
37702;DHT22;23548;51.196;6.838;2024-03-23T04:18:22;6.50;99.90
37702;DHT22;23548;51.196;6.838;2024-03-23T04:20:49;6.50;99.90
37702;DHT22;23548;51.196;6.838;2024-03-23T04:23:15;6.50;99.90
37702;DHT22;23548;51.196;6.838;2024-03-23T04:25:40;6.50;99.90
37702;DHT22;23548;51.196;6.838;2024-03-23T04:28:06;6.60;99.90
37702;DHT22;23548;51.196;6.838;2024-03-23T04:30:32;6.50;99.90
37702;DHT22;23548;51.196;6.838;2024-03-23T04:32:58;6.40;99.90
37702;DHT22;23548;51.196;6.838;2024-03-23T04:35:24;6.50;99.90
37702;DHT22;23548;51.196;6.838;2024-03-23T04:37:53;6.50;99.90
37702;DHT22;23548;51.196;6.838;2024-03-23T04:40:21;6.60;99.90
37702;DHT22;23548;51.196;6.838;2024-03-23T04:42:47;6.60;99.90
37702;DHT22;23548;51.196;6.838;2024-03-23T04:45:13;6.60;99.90
37702;DHT22;23548;51.196;6.838;2024-03-23T04:47:39;6.50;99.90
37702;DHT22;23548;51.196;6.838;2024-03-23T04:50:05;6.50;99.90
37702;DHT22;23548;51.196;6.838;2024-03-23T04:52:30;6.50;99.90
37702;DHT22;23548;51.196;6.838;2024-03-23T04:54:56;6.50;99.90
37702;DHT22;23548;51.196;6.838;2024-03-23T04:57:22;6.50;99.90
37702;DHT22;23548;51.196;6.838;2024-03-23T04:59:48;6.50;99.90
37702;DHT22;23548;51.196;6.838;2024-03-23T05:02:15;6.40;99.90
37702;DHT22;23548;51.196;6.838;2024-03-23T05:04:40;6.50;99.90
37702;DHT22;23548;51.196;6.838;2024-03-23T05:07:06;6.50;99.90
37702;DHT22;23548;51.196;6.838;2024-03-23T05:09:32;6.50;99.90
37702;DHT22;23548;51.196;6.838;2024-03-23T05:11:59;6.50;99.90
37702;DHT22;23548;51.196;6.838;2024-03-23T05:14:28;6.50;99.90
37702;DHT22;23548;51.196;6.838;2024-03-23T05:16:54;6.50;99.90
37702;DHT22;23548;51.196;6.838;2024-03-23T05:19:21;6.50;99.90
37702;DHT22;23548;51.196;6.838;2024-03-23T05:21:46;6.50;99.90
37702;DHT22;23548;51.196;6.838;2024-03-23T05:24:12;6.50;99.90
37702;DHT22;23548;51.196;6.838;2024-03-23T05:26:38;6.50;99.90
37702;DHT22;23548;51.196;6.838;2024-03-23T05:29:04;6.40;99.90
37702;DHT22;23548;51.196;6.838;2024-03-23T05:31:31;6.30;99.90
37702;DHT22;23548;51.196;6.838;2024-03-23T05:33:57;6.40;99.90
37702;DHT22;23548;51.196;6.838;2024-03-23T05:36:23;6.40;99.90
37702;DHT22;23548;51.196;6.838;2024-03-23T05:38:51;6.30;99.90
37702;DHT22;23548;51.196;6.838;2024-03-23T05:41:17;6.30;99.90
37702;DHT22;23548;51.196;6.838;2024-03-23T05:43:43;6.30;99.90
37702;DHT22;23548;51.196;6.838;2024-03-23T05:46:09;6.30;99.90
37702;DHT22;23548;51.196;6.838;2024-03-23T05:48:35;6.40;99.90
37702;DHT22;23548;51.196;6.838;2024-03-23T05:51:01;6.30;99.90
37702;DHT22;23548;51.196;6.838;2024-03-23T05:53:27;6.30;99.90
37702;DHT22;23548;51.196;6.838;2024-03-23T05:56:03;6.30;99.90
37702;DHT22;23548;51.196;6.838;2024-03-23T05:58:29;6.40;99.90
37702;DHT22;23548;51.196;6.838;2024-03-23T06:00:59;6.30;99.90
37702;DHT22;23548;51.196;6.838;2024-03-23T06:03:29;6.30;99.90
37702;DHT22;23548;51.196;6.838;2024-03-23T06:05:55;6.30;99.90
37702;DHT22;23548;51.196;6.838;2024-03-23T06:08:22;6.30;99.90
37702;DHT22;23548;51.196;6.838;2024-03-23T06:10:48;6.30;99.90
37702;DHT22;23548;51.196;6.838;2024-03-23T06:13:14;6.30;99.90
37702;DHT22;23548;51.196;6.838;2024-03-23T06:15:40;6.30;99.90
37702;DHT22;23548;51.196;6.838;2024-03-23T06:18:06;6.20;99.90
37702;DHT22;23548;51.196;6.838;2024-03-23T06:20:33;6.30;99.90
37702;DHT22;23548;51.196;6.838;2024-03-23T06:23:01;6.30;99.90
37702;DHT22;23548;51.196;6.838;2024-03-23T06:25:27;6.30;99.90
37702;DHT22;23548;51.196;6.838;2024-03-23T06:27:53;6.30;99.90
37702;DHT22;23548;51.196;6.838;2024-03-23T06:30:18;6.20;99.90
37702;DHT22;23548;51.196;6.838;2024-03-23T06:32:44;6.20;99.90
37702;DHT22;23548;51.196;6.838;2024-03-23T06:35:10;6.20;99.90
37702;DHT22;23548;51.196;6.838;2024-03-23T06:37:36;6.20;99.90
37702;DHT22;23548;51.196;6.838;2024-03-23T06:40:02;6.30;99.90
37702;DHT22;23548;51.196;6.838;2024-03-23T06:42:30;6.30;99.90
37702;DHT22;23548;51.196;6.838;2024-03-23T06:44:55;6.30;99.90
37702;DHT22;23548;51.196;6.838;2024-03-23T06:47:21;6.40;99.90
37702;DHT22;23548;51.196;6.838;2024-03-23T06:49:47;6.40;99.90
37702;DHT22;23548;51.196;6.838;2024-03-23T06:52:12;6.30;99.90
37702;DHT22;23548;51.196;6.838;2024-03-23T06:54:38;6.40;99.90
37702;DHT22;23548;51.196;6.838;2024-03-23T06:57:04;6.50;99.90
37702;DHT22;23548;51.196;6.838;2024-03-23T06:59:30;6.60;99.90
37702;DHT22;23548;51.196;6.838;2024-03-23T07:01:55;6.60;99.90
37702;DHT22;23548;51.196;6.838;2024-03-23T07:04:21;6.60;99.90
37702;DHT22;23548;51.196;6.838;2024-03-23T07:06:47;6.60;99.90
37702;DHT22;23548;51.196;6.838;2024-03-23T07:09:13;6.70;99.90
37702;DHT22;23548;51.196;6.838;2024-03-23T07:11:38;6.80;99.90
37702;DHT22;23548;51.196;6.838;2024-03-23T07:14:04;6.90;99.90
37702;DHT22;23548;51.196;6.838;2024-03-23T07:16:30;7.00;99.90
37702;DHT22;23548;51.196;6.838;2024-03-23T07:18:57;7.00;99.90
37702;DHT22;23548;51.196;6.838;2024-03-23T07:21:22;7.00;99.90
37702;DHT22;23548;51.196;6.838;2024-03-23T07:23:48;7.10;99.90
37702;DHT22;23548;51.196;6.838;2024-03-23T07:26:14;7.10;99.90
37702;DHT22;23548;51.196;6.838;2024-03-23T07:28:40;7.10;99.90
37702;DHT22;23548;51.196;6.838;2024-03-23T07:31:11;7.10;99.90
37702;DHT22;23548;51.196;6.838;2024-03-23T07:33:42;7.10;99.90
37702;DHT22;23548;51.196;6.838;2024-03-23T07:36:08;7.20;99.90
37702;DHT22;23548;51.196;6.838;2024-03-23T07:38:34;7.20;99.90
37702;DHT22;23548;51.196;6.838;2024-03-23T07:41:07;7.30;99.90
37702;DHT22;23548;51.196;6.838;2024-03-23T07:43:34;7.50;99.90
37702;DHT22;23548;51.196;6.838;2024-03-23T07:46:00;7.60;99.90
37702;DHT22;23548;51.196;6.838;2024-03-23T07:48:27;7.60;99.90
37702;DHT22;23548;51.196;6.838;2024-03-23T07:51:01;7.80;99.90
37702;DHT22;23548;51.196;6.838;2024-03-23T07:53:28;7.80;99.90
37702;DHT22;23548;51.196;6.838;2024-03-23T07:56:01;7.80;99.90
37702;DHT22;23548;51.196;6.838;2024-03-23T07:58:27;8.00;99.90
37702;DHT22;23548;51.196;6.838;2024-03-23T08:01:01;8.00;99.90
37702;DHT22;23548;51.196;6.838;2024-03-23T08:03:28;8.10;99.90
37702;DHT22;23548;51.196;6.838;2024-03-23T08:05:54;8.10;99.90
37702;DHT22;23548;51.196;6.838;2024-03-23T08:08:20;8.10;99.90
37702;DHT22;23548;51.196;6.838;2024-03-23T08:10:52;8.10;99.90
37702;DHT22;23548;51.196;6.838;2024-03-23T08:13:18;8.20;99.90
37702;DHT22;23548;51.196;6.838;2024-03-23T08:15:44;8.10;99.90
37702;DHT22;23548;51.196;6.838;2024-03-23T08:18:12;8.30;99.90
37702;DHT22;23548;51.196;6.838;2024-03-23T08:20:38;8.40;99.90
37702;DHT22;23548;51.196;6.838;2024-03-23T08:23:05;8.60;99.90
37702;DHT22;23548;51.196;6.838;2024-03-23T08:25:31;9.00;99.90
37702;DHT22;23548;51.196;6.838;2024-03-23T08:27:57;9.50;99.90
37702;DHT22;23548;51.196;6.838;2024-03-23T08:30:23;9.80;99.90
37702;DHT22;23548;51.196;6.838;2024-03-23T08:32:49;9.90;99.90
37702;DHT22;23548;51.196;6.838;2024-03-23T08:35:15;9.50;99.90
37702;DHT22;23548;51.196;6.838;2024-03-23T08:37:40;9.30;99.90
37702;DHT22;23548;51.196;6.838;2024-03-23T08:40:06;9.70;99.90
37702;DHT22;23548;51.196;6.838;2024-03-23T08:42:34;9.90;99.90
37702;DHT22;23548;51.196;6.838;2024-03-23T08:44:59;10.00;99.90
37702;DHT22;23548;51.196;6.838;2024-03-23T08:47:25;10.00;99.90
37702;DHT22;23548;51.196;6.838;2024-03-23T08:49:51;10.00;99.90
37702;DHT22;23548;51.196;6.838;2024-03-23T08:52:17;10.00;99.90
37702;DHT22;23548;51.196;6.838;2024-03-23T08:54:43;9.90;99.90
37702;DHT22;23548;51.196;6.838;2024-03-23T08:57:09;10.20;99.90
37702;DHT22;23548;51.196;6.838;2024-03-23T08:59:35;10.00;99.90
37702;DHT22;23548;51.196;6.838;2024-03-23T09:02:01;9.70;99.90
37702;DHT22;23548;51.196;6.838;2024-03-23T09:04:27;9.70;99.90
37702;DHT22;23548;51.196;6.838;2024-03-23T09:06:52;9.80;99.90
37702;DHT22;23548;51.196;6.838;2024-03-23T09:09:18;9.70;99.90
37702;DHT22;23548;51.196;6.838;2024-03-23T09:11:45;9.50;99.90
37702;DHT22;23548;51.196;6.838;2024-03-23T09:14:11;9.40;99.90
37702;DHT22;23548;51.196;6.838;2024-03-23T09:16:36;9.60;99.90
37702;DHT22;23548;51.196;6.838;2024-03-23T09:19:02;9.90;99.90
37702;DHT22;23548;51.196;6.838;2024-03-23T09:21:28;9.90;99.90
37702;DHT22;23548;51.196;6.838;2024-03-23T09:23:54;9.80;99.90
37702;DHT22;23548;51.196;6.838;2024-03-23T09:26:20;9.50;99.90
37702;DHT22;23548;51.196;6.838;2024-03-23T09:28:48;9.50;99.90
37702;DHT22;23548;51.196;6.838;2024-03-23T09:31:14;9.60;99.90
37702;DHT22;23548;51.196;6.838;2024-03-23T09:33:40;9.70;99.90
37702;DHT22;23548;51.196;6.838;2024-03-23T09:36:07;9.80;99.90
37702;DHT22;23548;51.196;6.838;2024-03-23T09:38:33;10.10;99.90
37702;DHT22;23548;51.196;6.838;2024-03-23T09:40:59;10.40;99.90
37702;DHT22;23548;51.196;6.838;2024-03-23T09:43:25;10.50;99.90
37702;DHT22;23548;51.196;6.838;2024-03-23T09:45:52;10.40;99.90
37702;DHT22;23548;51.196;6.838;2024-03-23T09:48:18;10.00;99.90
37702;DHT22;23548;51.196;6.838;2024-03-23T09:50:45;10.20;99.90
37702;DHT22;23548;51.196;6.838;2024-03-23T09:53:12;10.70;99.90
37702;DHT22;23548;51.196;6.838;2024-03-23T09:55:43;11.10;99.90
37702;DHT22;23548;51.196;6.838;2024-03-23T09:58:13;11.10;99.90
37702;DHT22;23548;51.196;6.838;2024-03-23T10:00:39;11.00;99.90
37702;DHT22;23548;51.196;6.838;2024-03-23T10:03:05;11.30;99.90
37702;DHT22;23548;51.196;6.838;2024-03-23T10:05:32;11.20;99.90
37702;DHT22;23548;51.196;6.838;2024-03-23T10:08:00;10.70;99.90
37702;DHT22;23548;51.196;6.838;2024-03-23T10:10:26;10.40;99.00
37702;DHT22;23548;51.196;6.838;2024-03-23T10:12:52;10.30;97.70
37702;DHT22;23548;51.196;6.838;2024-03-23T10:15:21;10.30;97.20
37702;DHT22;23548;51.196;6.838;2024-03-23T10:17:48;10.50;97.20
37702;DHT22;23548;51.196;6.838;2024-03-23T10:20:22;10.70;94.10
37702;DHT22;23548;51.196;6.838;2024-03-23T10:22:49;10.80;94.50
37702;DHT22;23548;51.196;6.838;2024-03-23T10:25:15;10.70;92.00
37702;DHT22;23548;51.196;6.838;2024-03-23T10:27:41;11.00;92.20
37702;DHT22;23548;51.196;6.838;2024-03-23T10:30:13;11.40;91.10
37702;DHT22;23548;51.196;6.838;2024-03-23T10:32:42;11.70;91.00
37702;DHT22;23548;51.196;6.838;2024-03-23T10:35:18;11.10;86.90
37702;DHT22;23548;51.196;6.838;2024-03-23T10:37:45;9.80;90.90
37702;DHT22;23548;51.196;6.838;2024-03-23T10:40:13;8.80;99.40
37702;DHT22;23548;51.196;6.838;2024-03-23T10:42:39;8.10;99.90
37702;DHT22;23548;51.196;6.838;2024-03-23T10:45:05;7.40;99.90
37702;DHT22;23548;51.196;6.838;2024-03-23T10:47:34;6.90;99.90
37702;DHT22;23548;51.196;6.838;2024-03-23T10:49:59;6.70;99.90
37702;DHT22;23548;51.196;6.838;2024-03-23T10:52:25;6.50;99.90
37702;DHT22;23548;51.196;6.838;2024-03-23T10:54:51;6.40;99.90
37702;DHT22;23548;51.196;6.838;2024-03-23T10:57:49;6.20;99.90
37702;DHT22;23548;51.196;6.838;2024-03-23T11:00:17;6.10;99.90
37702;DHT22;23548;51.196;6.838;2024-03-23T11:02:43;6.20;99.90
37702;DHT22;23548;51.196;6.838;2024-03-23T11:05:46;6.30;99.90
37702;DHT22;23548;51.196;6.838;2024-03-23T11:08:33;6.30;99.90
37702;DHT22;23548;51.196;6.838;2024-03-23T11:11:18;6.30;99.90
37702;DHT22;23548;51.196;6.838;2024-03-23T11:13:52;6.30;99.90
37702;DHT22;23548;51.196;6.838;2024-03-23T11:16:27;6.30;99.90
37702;DHT22;23548;51.196;6.838;2024-03-23T11:19:33;6.40;99.90
37702;DHT22;23548;51.196;6.838;2024-03-23T11:21:59;6.60;99.90
37702;DHT22;23548;51.196;6.838;2024-03-23T11:24:25;6.80;99.90
37702;DHT22;23548;51.196;6.838;2024-03-23T11:26:51;7.00;99.90
37702;DHT22;23548;51.196;6.838;2024-03-23T11:29:18;7.00;99.90
37702;DHT22;23548;51.196;6.838;2024-03-23T11:31:47;7.20;99.90
37702;DHT22;23548;51.196;6.838;2024-03-23T11:34:14;7.10;99.90
37702;DHT22;23548;51.196;6.838;2024-03-23T11:36:40;7.20;99.90
37702;DHT22;23548;51.196;6.838;2024-03-23T11:39:13;7.30;99.90
37702;DHT22;23548;51.196;6.838;2024-03-23T11:41:49;7.50;99.90
37702;DHT22;23548;51.196;6.838;2024-03-23T11:44:23;7.60;99.90
37702;DHT22;23548;51.196;6.838;2024-03-23T11:46:50;7.80;99.90
37702;DHT22;23548;51.196;6.838;2024-03-23T11:49:25;8.00;99.90
37702;DHT22;23548;51.196;6.838;2024-03-23T11:51:52;8.30;99.90
37702;DHT22;23548;51.196;6.838;2024-03-23T11:54:23;8.60;99.90
37702;DHT22;23548;51.196;6.838;2024-03-23T11:57:07;9.10;99.90
37702;DHT22;23548;51.196;6.838;2024-03-23T12:02:05;8.80;99.90
37702;DHT22;23548;51.196;6.838;2024-03-23T12:04:31;7.50;99.90
37702;DHT22;23548;51.196;6.838;2024-03-23T12:07:14;6.70;99.90
37702;DHT22;23548;51.196;6.838;2024-03-23T12:09:43;6.50;99.90
37702;DHT22;23548;51.196;6.838;2024-03-23T12:12:16;6.60;99.90
37702;DHT22;23548;51.196;6.838;2024-03-23T12:14:43;6.70;99.90
37702;DHT22;23548;51.196;6.838;2024-03-23T12:17:13;6.70;99.90
37702;DHT22;23548;51.196;6.838;2024-03-23T12:19:40;6.70;99.90
37702;DHT22;23548;51.196;6.838;2024-03-23T12:22:10;6.80;99.90
37702;DHT22;23548;51.196;6.838;2024-03-23T12:24:36;7.00;99.90
37702;DHT22;23548;51.196;6.838;2024-03-23T12:27:02;7.20;99.90
37702;DHT22;23548;51.196;6.838;2024-03-23T12:29:29;7.50;99.90
37702;DHT22;23548;51.196;6.838;2024-03-23T12:31:59;7.60;99.90
37702;DHT22;23548;51.196;6.838;2024-03-23T12:34:26;7.80;99.90
37702;DHT22;23548;51.196;6.838;2024-03-23T12:36:52;8.20;99.90
37702;DHT22;23548;51.196;6.838;2024-03-23T12:39:17;8.20;99.90
37702;DHT22;23548;51.196;6.838;2024-03-23T12:41:44;8.20;99.90
37702;DHT22;23548;51.196;6.838;2024-03-23T12:44:10;8.00;99.90
37702;DHT22;23548;51.196;6.838;2024-03-23T12:46:37;7.90;99.90
37702;DHT22;23548;51.196;6.838;2024-03-23T12:49:04;8.10;99.90
37702;DHT22;23548;51.196;6.838;2024-03-23T12:51:29;8.10;99.90
37702;DHT22;23548;51.196;6.838;2024-03-23T12:53:55;8.60;99.90
37702;DHT22;23548;51.196;6.838;2024-03-23T12:56:21;8.80;99.90
37702;DHT22;23548;51.196;6.838;2024-03-23T12:58:46;9.20;99.90
37702;DHT22;23548;51.196;6.838;2024-03-23T13:01:17;9.80;99.90
37702;DHT22;23548;51.196;6.838;2024-03-23T13:03:42;10.10;99.90
37702;DHT22;23548;51.196;6.838;2024-03-23T13:06:10;10.20;99.90
37702;DHT22;23548;51.196;6.838;2024-03-23T13:08:36;10.00;99.90
37702;DHT22;23548;51.196;6.838;2024-03-23T13:11:02;9.50;99.90
37702;DHT22;23548;51.196;6.838;2024-03-23T13:13:28;9.40;99.90
37702;DHT22;23548;51.196;6.838;2024-03-23T13:15:54;9.50;99.90
37702;DHT22;23548;51.196;6.838;2024-03-23T13:18:20;9.50;99.90
37702;DHT22;23548;51.196;6.838;2024-03-23T13:20:46;9.40;99.90
37702;DHT22;23548;51.196;6.838;2024-03-23T13:23:11;7.80;99.90
37702;DHT22;23548;51.196;6.838;2024-03-23T13:25:37;6.30;99.90
37702;DHT22;23548;51.196;6.838;2024-03-23T13:28:03;6.10;99.90
37702;DHT22;23548;51.196;6.838;2024-03-23T13:30:29;6.10;99.90
37702;DHT22;23548;51.196;6.838;2024-03-23T13:32:55;6.30;99.90
37702;DHT22;23548;51.196;6.838;2024-03-23T13:35:21;6.60;99.90
37702;DHT22;23548;51.196;6.838;2024-03-23T13:37:48;7.00;99.90
37702;DHT22;23548;51.196;6.838;2024-03-23T13:40:14;7.30;99.90
37702;DHT22;23548;51.196;6.838;2024-03-23T13:42:39;7.60;99.90
37702;DHT22;23548;51.196;6.838;2024-03-23T13:45:06;7.90;99.90
37702;DHT22;23548;51.196;6.838;2024-03-23T13:47:31;8.20;99.90
37702;DHT22;23548;51.196;6.838;2024-03-23T13:49:58;8.20;99.90
37702;DHT22;23548;51.196;6.838;2024-03-23T13:52:23;8.00;99.90
37702;DHT22;23548;51.196;6.838;2024-03-23T13:54:51;7.70;99.90
37702;DHT22;23548;51.196;6.838;2024-03-23T13:57:17;7.50;99.90
37702;DHT22;23548;51.196;6.838;2024-03-23T13:59:47;7.50;99.90
37702;DHT22;23548;51.196;6.838;2024-03-23T14:02:14;7.60;99.90
37702;DHT22;23548;51.196;6.838;2024-03-23T14:04:40;7.80;99.90
37702;DHT22;23548;51.196;6.838;2024-03-23T14:07:06;8.10;99.90
37702;DHT22;23548;51.196;6.838;2024-03-23T14:09:33;8.50;99.90
37702;DHT22;23548;51.196;6.838;2024-03-23T14:11:58;8.90;99.90
37702;DHT22;23548;51.196;6.838;2024-03-23T14:14:26;10.00;99.90
37702;DHT22;23548;51.196;6.838;2024-03-23T14:16:51;11.10;99.90
37702;DHT22;23548;51.196;6.838;2024-03-23T14:19:18;10.70;99.90
37702;DHT22;23548;51.196;6.838;2024-03-23T14:21:44;11.60;99.90
37702;DHT22;23548;51.196;6.838;2024-03-23T14:24:10;13.10;98.30
37702;DHT22;23548;51.196;6.838;2024-03-23T14:26:36;13.90;92.30
37702;DHT22;23548;51.196;6.838;2024-03-23T14:29:02;14.70;90.70
37702;DHT22;23548;51.196;6.838;2024-03-23T14:31:29;13.70;84.80
37702;DHT22;23548;51.196;6.838;2024-03-23T14:33:54;12.00;91.10
37702;DHT22;23548;51.196;6.838;2024-03-23T14:36:20;10.50;94.70
37702;DHT22;23548;51.196;6.838;2024-03-23T14:38:49;9.20;99.90
37702;DHT22;23548;51.196;6.838;2024-03-23T14:41:15;8.20;99.90
37702;DHT22;23548;51.196;6.838;2024-03-23T14:43:41;7.70;99.90
37702;DHT22;23548;51.196;6.838;2024-03-23T14:46:16;7.40;99.90
37702;DHT22;23548;51.196;6.838;2024-03-23T14:48:45;7.40;99.90
37702;DHT22;23548;51.196;6.838;2024-03-23T14:51:12;7.40;99.90
37702;DHT22;23548;51.196;6.838;2024-03-23T14:53:39;7.40;99.90
37702;DHT22;23548;51.196;6.838;2024-03-23T14:56:06;7.60;99.90
37702;DHT22;23548;51.196;6.838;2024-03-23T14:58:33;7.60;99.90
37702;DHT22;23548;51.196;6.838;2024-03-23T15:03:27;7.60;99.90
37702;DHT22;23548;51.196;6.838;2024-03-23T15:05:56;7.70;99.90
37702;DHT22;23548;51.196;6.838;2024-03-23T15:08:23;7.70;99.90
37702;DHT22;23548;51.196;6.838;2024-03-23T15:10:49;7.80;99.90
37702;DHT22;23548;51.196;6.838;2024-03-23T15:13:15;7.90;99.90
37702;DHT22;23548;51.196;6.838;2024-03-23T15:15:42;8.80;99.90
37702;DHT22;23548;51.196;6.838;2024-03-23T15:18:13;11.30;99.90
37702;DHT22;23548;51.196;6.838;2024-03-23T15:20:41;12.50;96.40
37702;DHT22;23548;51.196;6.838;2024-03-23T15:23:07;12.20;94.30
37702;DHT22;23548;51.196;6.838;2024-03-23T15:25:33;11.90;95.60
37702;DHT22;23548;51.196;6.838;2024-03-23T15:27:59;11.30;95.10
37702;DHT22;23548;51.196;6.838;2024-03-23T15:30:26;11.50;94.70
37702;DHT22;23548;51.196;6.838;2024-03-23T15:32:52;13.20;91.00
37702;DHT22;23548;51.196;6.838;2024-03-23T15:35:18;14.50;79.00
37702;DHT22;23548;51.196;6.838;2024-03-23T15:37:46;14.90;74.30
37702;DHT22;23548;51.196;6.838;2024-03-23T15:40:12;14.80;74.00
37702;DHT22;23548;51.196;6.838;2024-03-23T15:42:38;14.80;71.00
37702;DHT22;23548;51.196;6.838;2024-03-23T15:45:06;14.50;68.80
37702;DHT22;23548;51.196;6.838;2024-03-23T15:47:34;13.80;68.00
37702;DHT22;23548;51.196;6.838;2024-03-23T15:50:00;12.50;72.60
37702;DHT22;23548;51.196;6.838;2024-03-23T15:52:25;11.40;76.80
37702;DHT22;23548;51.196;6.838;2024-03-23T15:54:51;10.40;80.90
37702;DHT22;23548;51.196;6.838;2024-03-23T15:57:18;10.20;84.40
37702;DHT22;23548;51.196;6.838;2024-03-23T15:59:44;10.20;86.10
37702;DHT22;23548;51.196;6.838;2024-03-23T16:02:09;9.90;87.70
37702;DHT22;23548;51.196;6.838;2024-03-23T16:04:35;9.80;86.10
37702;DHT22;23548;51.196;6.838;2024-03-23T16:07:01;9.40;86.50
37702;DHT22;23548;51.196;6.838;2024-03-23T16:09:27;8.90;87.80
37702;DHT22;23548;51.196;6.838;2024-03-23T16:11:55;8.80;89.40
37702;DHT22;23548;51.196;6.838;2024-03-23T16:14:21;8.60;90.70
37702;DHT22;23548;51.196;6.838;2024-03-23T16:16:48;8.40;92.10
37702;DHT22;23548;51.196;6.838;2024-03-23T16:19:13;8.40;92.80
37702;DHT22;23548;51.196;6.838;2024-03-23T16:21:39;8.30;93.70
37702;DHT22;23548;51.196;6.838;2024-03-23T16:24:06;8.30;93.60
37702;DHT22;23548;51.196;6.838;2024-03-23T16:26:33;8.30;93.40
37702;DHT22;23548;51.196;6.838;2024-03-23T16:28:59;8.50;93.60
37702;DHT22;23548;51.196;6.838;2024-03-23T16:31:25;8.60;93.10
37702;DHT22;23548;51.196;6.838;2024-03-23T16:33:50;8.80;93.00
37702;DHT22;23548;51.196;6.838;2024-03-23T16:36:18;8.90;92.90
37702;DHT22;23548;51.196;6.838;2024-03-23T16:38:43;9.00;91.80
37702;DHT22;23548;51.196;6.838;2024-03-23T16:41:11;9.00;92.30